Seymour Johnson AFB, North Carolina
Current Conditions -  °F | °C
As of 7:58 PM on Friday 19 Dec 2014 (Local Time) from KGSB Reporting Station
Clear Clear  
Wind Chill: 40°   Ceiling: Unl
Heat Index: 40°   Visibility: 10mi
Dew Point: 39°   Wind: 0mph
Humidity: 97%   Direction: NA
Pressure: 30.17"   Gusts: NA
Location:  35.3407°N, 77.9695°W
Report Text: KGSB 200058Z AUTO 00000KT 10SM CLR 04/04 A3017 RMK AO2 SLP220 T00430039 $
Loading
Personal Weather Stations






























Interactive Weather Map New forecast layout! Learn more

10-Day Weather Forecast

Advertisements
Track Severe Weather on mobile